Fargo, ND

1:20 AM CDT on May 01, 2017 (GMT -0500)
Northport | | Change Station

Elev 899 ft 46.91 °N, 96.79 °W | Updated 27 seconds ago

Clear
Clear
43.0 °F
Feels Like 43 °F
N
2.0
Wind Variable Wind from East

Today
High -- | Low -- °F
--% Chance of Precip.
Yesterday
High -- | Low -- °F
Precip. -- in
Pressure 29.82 in
Visibility 10.0 miles
Clouds Clear
Windchill 43 °F
Dew Point 26 °F
Humidity 51%
Rainfall 0.00 in
Snow Depth Not available.
6:11 AM 8:38 PM
Waxing Crescent, 30% visible
METAR KFAR 010553Z 04005KT 10SM CLR 05/M04 A2980 RMK AO2 SLP096 T00501039 10150 20050 401780000 56012
Pressure 29.82 in
Visibility 10.0 miles
Clouds Clear
Windchill 43 °F
Dew Point 26 °F
Humidity 51%
Rainfall 0.00 in
Snow Depth Not available.
6:11 AM 8:38 PM
Waxing Crescent, 30% visible
METAR KFAR 010553Z 04005KT 10SM CLR 05/M04 A2980 RMK AO2 SLP096 T00501039 10150 20050 401780000 56012

Get Severe Weather Alerts

Thanks for signing up!

Be on the lookout for a verification email in your inbox.

You'll start receiving the daily forecast at 8 AM.

×

10-Day Weather Forecast

Almanac

Astronomy

May. 01, 2017 Rise Set
Actual Time
Civil Twilight
Nautical Twilight
Astronomical Twilight
Moon
Length of Visible Light
Length of Day
Tomorrow will be .
, % of the Moon is Illuminated

Today's Extremes

State Highs State Lows

Community

WunderPhotos

WunderBlog® & News

Nearby

Air Quality

  Air Quality AQ Index Pollutant
Not available.

Snow Depth

Station Depth Elevation

Earthquake Activity

City Distance Mag. Time & Date
Minimum magnitude displayed is 2.5.

Coastal Water Temperatures

Place Temperature

Stations

Nearby Weather Stations

Station Location Temp. Windchill Dew Point Humidity Wind Precip. Elev Updated Type
                   

Watches & Warnings

There are currently no watches in effect.